sensor_id;sensor_type;location;lat;lon;timestamp;pressure;altitude;pressure_sealevel;temperature;humidity
65872;BME280;52653;50.080;21.992;2023-11-21T00:02:21;98239.83;;;5.68;100.00
65872;BME280;52653;50.080;21.992;2023-11-21T00:05:16;98241.38;;;5.69;100.00
65872;BME280;52653;50.080;21.992;2023-11-21T00:08:02;98239.30;;;5.70;100.00
65872;BME280;52653;50.080;21.992;2023-11-21T00:10:56;98240.86;;;5.70;100.00
65872;BME280;52653;50.080;21.992;2023-11-21T00:13:54;98242.60;;;5.70;100.00
65872;BME280;52653;50.080;21.992;2023-11-21T00:16:40;98239.12;;;5.71;100.00
65872;BME280;52653;50.080;21.992;2023-11-21T00:19:33;98239.66;;;5.72;100.00
65872;BME280;52653;50.080;21.992;2023-11-21T00:22:26;98242.79;;;5.73;100.00
65872;BME280;52653;50.080;21.992;2023-11-21T00:25:39;98242.95;;;5.74;100.00
65872;BME280;52653;50.080;21.992;2023-11-21T00:28:23;98242.42;;;5.74;100.00
65872;BME280;52653;50.080;21.992;2023-11-21T00:31:16;98243.98;;;5.75;100.00
65872;BME280;52653;50.080;21.992;2023-11-21T00:34:10;98242.24;;;5.76;100.00
65872;BME280;52653;50.080;21.992;2023-11-21T00:37:03;98247.27;;;5.78;100.00
65872;BME280;52653;50.080;21.992;2023-11-21T00:39:56;98251.09;;;5.79;100.00
65872;BME280;52653;50.080;21.992;2023-11-21T00:42:48;98255.10;;;5.78;100.00
65872;BME280;52653;50.080;21.992;2023-11-21T00:45:41;98251.27;;;5.76;100.00
65872;BME280;52653;50.080;21.992;2023-11-21T00:48:38;98254.95;;;5.76;100.00
65872;BME280;52653;50.080;21.992;2023-11-21T00:51:31;98254.41;;;5.77;100.00
65872;BME280;52653;50.080;21.992;2023-11-21T00:54:15;98258.23;;;5.80;100.00
65872;BME280;52653;50.080;21.992;2023-11-21T00:57:09;98251.26;;;5.81;100.00
65872;BME280;52653;50.080;21.992;2023-11-21T01:00:03;98247.94;;;5.82;100.00
65872;BME280;52653;50.080;21.992;2023-11-21T01:02:59;98244.13;;;5.85;100.00
65872;BME280;52653;50.080;21.992;2023-11-21T01:05:45;98247.41;;;5.88;100.00
65872;BME280;52653;50.080;21.992;2023-11-21T01:08:41;98244.63;;;5.91;100.00
65872;BME280;52653;50.080;21.992;2023-11-21T01:11:35;98243.39;;;5.94;100.00
65872;BME280;52653;50.080;21.992;2023-11-21T01:14:31;98238.69;;;5.97;100.00
65872;BME280;52653;50.080;21.992;2023-11-21T01:17:16;98235.20;;;5.99;100.00
65872;BME280;52653;50.080;21.992;2023-11-21T01:23:08;98234.66;;;6.02;100.00
65872;BME280;52653;50.080;21.992;2023-11-21T01:26:02;98234.65;;;6.04;100.00
65872;BME280;52653;50.080;21.992;2023-11-21T01:28:47;98233.59;;;6.06;100.00
65872;BME280;52653;50.080;21.992;2023-11-21T01:31:33;98231.32;;;6.07;100.00
65872;BME280;52653;50.080;21.992;2023-11-21T01:34:26;98230.98;;;6.06;100.00
65872;BME280;52653;50.080;21.992;2023-11-21T01:37:11;98226.98;;;6.04;100.00
65872;BME280;52653;50.080;21.992;2023-11-21T01:40:04;98229.62;;;6.02;100.00
65872;BME280;52653;50.080;21.992;2023-11-21T01:43:01;98229.11;;;6.02;100.00
65872;BME280;52653;50.080;21.992;2023-11-21T01:45:55;98231.18;;;6.02;100.00
65872;BME280;52653;50.080;21.992;2023-11-21T01:48:49;98226.30;;;6.03;100.00
65872;BME280;52653;50.080;21.992;2023-11-21T01:51:35;98224.56;;;6.04;100.00
65872;BME280;52653;50.080;21.992;2023-11-21T01:54:22;98222.99;;;6.03;100.00
65872;BME280;52653;50.080;21.992;2023-11-21T01:57:15;98224.39;;;6.04;100.00
65872;BME280;52653;50.080;21.992;2023-11-21T02:00:13;98225.77;;;6.04;100.00
65872;BME280;52653;50.080;21.992;2023-11-21T02:03:14;98221.94;;;6.05;100.00
65872;BME280;52653;50.080;21.992;2023-11-21T02:06:08;98225.75;;;6.07;100.00
65872;BME280;52653;50.080;21.992;2023-11-21T02:09:01;98232.19;;;6.09;100.00
65872;BME280;52653;50.080;21.992;2023-11-21T02:11:56;98230.28;;;6.10;100.00
65872;BME280;52653;50.080;21.992;2023-11-21T02:14:50;98231.30;;;6.12;100.00
65872;BME280;52653;50.080;21.992;2023-11-21T02:17:45;98239.14;;;6.13;100.00
65872;BME280;52653;50.080;21.992;2023-11-21T02:20:40;98241.73;;;6.14;100.00
65872;BME280;52653;50.080;21.992;2023-11-21T02:23:38;98239.80;;;6.17;100.00
65872;BME280;52653;50.080;21.992;2023-11-21T02:26:36;98239.09;;;6.18;100.00
65872;BME280;52653;50.080;21.992;2023-11-21T02:29:28;98235.27;;;6.18;100.00
65872;BME280;52653;50.080;21.992;2023-11-21T02:32:24;98234.02;;;6.21;100.00
65872;BME280;52653;50.080;21.992;2023-11-21T02:35:18;98235.42;;;6.23;100.00
65872;BME280;52653;50.080;21.992;2023-11-21T02:38:12;98235.93;;;6.26;100.00
65872;BME280;52653;50.080;21.992;2023-11-21T02:41:05;98233.13;;;6.28;100.00
65872;BME280;52653;50.080;21.992;2023-11-21T02:44:18;98233.46;;;6.29;100.00
65872;BME280;52653;50.080;21.992;2023-11-21T02:47:11;98236.07;;;6.29;100.00
65872;BME280;52653;50.080;21.992;2023-11-21T02:50:06;98236.41;;;6.30;100.00
65872;BME280;52653;50.080;21.992;2023-11-21T02:52:59;98238.67;;;6.31;100.00
65872;BME280;52653;50.080;21.992;2023-11-21T02:55:53;98237.61;;;6.32;100.00
65872;BME280;52653;50.080;21.992;2023-11-21T02:58:48;98237.42;;;6.33;100.00
65872;BME280;52653;50.080;21.992;2023-11-21T03:01:41;98238.64;;;6.34;100.00
65872;BME280;52653;50.080;21.992;2023-11-21T03:04:38;98242.83;;;6.33;100.00
65872;BME280;52653;50.080;21.992;2023-11-21T03:07:32;98247.00;;;6.35;100.00
65872;BME280;52653;50.080;21.992;2023-11-21T03:10:25;98242.65;;;6.36;100.00
65872;BME280;52653;50.080;21.992;2023-11-21T03:13:18;98249.78;;;6.38;100.00
65872;BME280;52653;50.080;21.992;2023-11-21T03:16:12;98241.95;;;6.37;100.00
65872;BME280;52653;50.080;21.992;2023-11-21T03:19:06;98244.92;;;6.36;100.00
65872;BME280;52653;50.080;21.992;2023-11-21T03:21:59;98246.13;;;6.37;100.00
65872;BME280;52653;50.080;21.992;2023-11-21T03:24:51;98242.11;;;6.38;100.00
65872;BME280;52653;50.080;21.992;2023-11-21T03:27:44;98239.15;;;6.39;100.00
65872;BME280;52653;50.080;21.992;2023-11-21T03:30:38;98239.84;;;6.40;100.00
65872;BME280;52653;50.080;21.992;2023-11-21T03:33:31;98237.22;;;6.41;100.00
65872;BME280;52653;50.080;21.992;2023-11-21T03:36:23;98240.69;;;6.42;100.00
65872;BME280;52653;50.080;21.992;2023-11-21T03:39:17;98240.15;;;6.43;100.00
65872;BME280;52653;50.080;21.992;2023-11-21T03:42:09;98241.36;;;6.44;100.00
65872;BME280;52653;50.080;21.992;2023-11-21T03:45:02;98243.79;;;6.45;100.00
65872;BME280;52653;50.080;21.992;2023-11-21T03:47:55;98243.61;;;6.46;100.00
65872;BME280;52653;50.080;21.992;2023-11-21T03:50:48;98248.48;;;6.47;100.00
65872;BME280;52653;50.080;21.992;2023-11-21T03:53:40;98247.96;;;6.48;100.00
65872;BME280;52653;50.080;21.992;2023-11-21T03:56:34;98250.73;;;6.51;100.00
65872;BME280;52653;50.080;21.992;2023-11-21T03:59:27;98247.42;;;6.53;100.00
65872;BME280;52653;50.080;21.992;2023-11-21T04:02:19;98250.88;;;6.55;100.00
65872;BME280;52653;50.080;21.992;2023-11-21T04:05:12;98251.56;;;6.56;100.00
65872;BME280;52653;50.080;21.992;2023-11-21T04:08:06;98245.79;;;6.58;100.00
65872;BME280;52653;50.080;21.992;2023-11-21T04:10:59;98242.82;;;6.59;100.00
65872;BME280;52653;50.080;21.992;2023-11-21T04:13:54;98244.56;;;6.60;100.00
65872;BME280;52653;50.080;21.992;2023-11-21T04:17:00;98246.14;;;6.61;100.00
65872;BME280;52653;50.080;21.992;2023-11-21T04:19:55;98249.26;;;6.64;100.00
65872;BME280;52653;50.080;21.992;2023-11-21T04:22:48;98252.73;;;6.65;100.00
65872;BME280;52653;50.080;21.992;2023-11-21T04:25:40;98252.54;;;6.66;100.00
65872;BME280;52653;50.080;21.992;2023-11-21T04:28:33;98253.57;;;6.67;100.00
65872;BME280;52653;50.080;21.992;2023-11-21T04:31:18;98254.60;;;6.69;100.00
65872;BME280;52653;50.080;21.992;2023-11-21T04:34:11;98254.74;;;6.72;100.00
65872;BME280;52653;50.080;21.992;2023-11-21T04:37:07;98259.96;;;6.73;100.00
65872;BME280;52653;50.080;21.992;2023-11-21T04:40:02;98262.06;;;6.73;100.00
65872;BME280;52653;50.080;21.992;2023-11-21T04:42:59;98259.29;;;6.74;100.00
65872;BME280;52653;50.080;21.992;2023-11-21T04:45:51;98260.67;;;6.73;100.00
65872;BME280;52653;50.080;21.992;2023-11-21T04:48:41;98265.04;;;6.74;100.00
65872;BME280;52653;50.080;21.992;2023-11-21T04:51:33;98269.55;;;6.73;100.00
65872;BME280;52653;50.080;21.992;2023-11-21T04:54:27;98270.27;;;6.74;100.00
65872;BME280;52653;50.080;21.992;2023-11-21T04:57:21;98270.60;;;6.75;100.00
65872;BME280;52653;50.080;21.992;2023-11-21T05:00:15;98271.13;;;6.75;100.00
65872;BME280;52653;50.080;21.992;2023-11-21T05:02:53;98275.65;;;6.75;100.00
65872;BME280;52653;50.080;21.992;2023-11-21T05:05:46;98275.30;;;6.76;100.00
65872;BME280;52653;50.080;21.992;2023-11-21T05:08:41;98275.66;;;6.74;100.00
65872;BME280;52653;50.080;21.992;2023-11-21T05:11:34;98278.63;;;6.73;100.00
65872;BME280;52653;50.080;21.992;2023-11-21T05:14:27;98279.14;;;6.73;100.00
65872;BME280;52653;50.080;21.992;2023-11-21T05:17:19;98281.94;;;6.73;100.00
65872;BME280;52653;50.080;21.992;2023-11-21T05:20:16;98282.11;;;6.74;100.00
65872;BME280;52653;50.080;21.992;2023-11-21T05:23:12;98275.66;;;6.74;100.00
65872;BME280;52653;50.080;21.992;2023-11-21T05:25:58;98282.45;;;6.74;100.00
65872;BME280;52653;50.080;21.992;2023-11-21T05:28:51;98282.11;;;6.75;100.00
65872;BME280;52653;50.080;21.992;2023-11-21T05:31:36;98282.27;;;6.75;100.00
65872;BME280;52653;50.080;21.992;2023-11-21T05:34:29;98285.77;;;6.75;100.00
65872;BME280;52653;50.080;21.992;2023-11-21T05:37:22;98288.71;;;6.76;100.00
65872;BME280;52653;50.080;21.992;2023-11-21T05:40:05;98290.29;;;6.76;100.00
65872;BME280;52653;50.080;21.992;2023-11-21T05:42:56;98291.50;;;6.76;100.00
65872;BME280;52653;50.080;21.992;2023-11-21T05:45:38;98287.30;;;6.77;100.00
65872;BME280;52653;50.080;21.992;2023-11-21T05:48:31;98290.45;;;6.77;100.00
65872;BME280;52653;50.080;21.992;2023-11-21T05:51:16;98289.40;;;6.77;100.00
65872;BME280;52653;50.080;21.992;2023-11-21T05:54:09;98288.36;;;6.76;100.00
65872;BME280;52653;50.080;21.992;2023-11-21T05:57:02;98291.85;;;6.76;100.00
65872;BME280;52653;50.080;21.992;2023-11-21T05:59:55;98298.48;;;6.74;100.00
65872;BME280;52653;50.080;21.992;2023-11-21T06:02:36;98300.92;;;6.74;100.00
65872;BME280;52653;50.080;21.992;2023-11-21T06:05:29;98299.02;;;6.74;100.00
65872;BME280;52653;50.080;21.992;2023-11-21T06:08:22;98300.41;;;6.74;100.00
65872;BME280;52653;50.080;21.992;2023-11-21T06:11:16;98304.58;;;6.75;100.00
65872;BME280;52653;50.080;21.992;2023-11-21T06:14:04;98304.05;;;6.75;100.00
65872;BME280;52653;50.080;21.992;2023-11-21T06:16:59;98307.02;;;6.76;100.00
65872;BME280;52653;50.080;21.992;2023-11-21T06:19:51;98311.36;;;6.77;100.00
65872;BME280;52653;50.080;21.992;2023-11-21T06:22:47;98315.88;;;6.78;100.00
65872;BME280;52653;50.080;21.992;2023-11-21T06:25:35;98315.69;;;6.79;100.00
65872;BME280;52653;50.080;21.992;2023-11-21T06:28:28;98316.38;;;6.80;100.00
65872;BME280;52653;50.080;21.992;2023-11-21T06:31:23;98319.52;;;6.80;100.00
65872;BME280;52653;50.080;21.992;2023-11-21T06:34:15;98322.82;;;6.82;100.00
65872;BME280;52653;50.080;21.992;2023-11-21T06:37:09;98325.43;;;6.82;100.00
65872;BME280;52653;50.080;21.992;2023-11-21T06:40:04;98328.04;;;6.83;100.00
65872;BME280;52653;50.080;21.992;2023-11-21T06:42:57;98327.50;;;6.85;100.00
65872;BME280;52653;50.080;21.992;2023-11-21T06:45:54;98329.59;;;6.86;100.00
65872;BME280;52653;50.080;21.992;2023-11-21T06:48:46;98333.08;;;6.88;100.00
65872;BME280;52653;50.080;21.992;2023-11-21T06:51:33;98335.31;;;6.91;100.00
65872;BME280;52653;50.080;21.992;2023-11-21T06:54:30;98339.48;;;6.92;100.00
65872;BME280;52653;50.080;21.992;2023-11-21T06:57:25;98339.30;;;6.93;100.00
65872;BME280;52653;50.080;21.992;2023-11-21T07:00:18;98342.93;;;6.96;100.00
65872;BME280;52653;50.080;21.992;2023-11-21T07:03:11;98344.84;;;6.99;100.00
65872;BME280;52653;50.080;21.992;2023-11-21T07:05:47;98344.31;;;7.00;100.00
65872;BME280;52653;50.080;21.992;2023-11-21T07:08:40;98345.67;;;7.03;100.00
65872;BME280;52653;50.080;21.992;2023-11-21T07:11:34;98344.60;;;7.06;100.00
65872;BME280;52653;50.080;21.992;2023-11-21T07:14:26;98342.83;;;7.10;100.00
65872;BME280;52653;50.080;21.992;2023-11-21T07:17:20;98344.02;;;7.15;100.00
65872;BME280;52653;50.080;21.992;2023-11-21T07:20:12;98343.64;;;7.18;100.00
65872;BME280;52653;50.080;21.992;2023-11-21T07:23:02;98339.06;;;7.22;100.00
65872;BME280;52653;50.080;21.992;2023-11-21T07:25:57;98342.54;;;7.25;100.00
65872;BME280;52653;50.080;21.992;2023-11-21T07:28:50;98341.10;;;7.30;100.00
65872;BME280;52653;50.080;21.992;2023-11-21T07:31:42;98344.54;;;7.34;100.00
65872;BME280;52653;50.080;21.992;2023-11-21T07:34:22;98345.73;;;7.37;100.00
65872;BME280;52653;50.080;21.992;2023-11-21T07:37:17;98346.04;;;7.44;100.00
65872;BME280;52653;50.080;21.992;2023-11-21T07:40:12;98348.59;;;7.50;100.00
65872;BME280;52653;50.080;21.992;2023-11-21T07:42:57;98348.37;;;7.55;100.00
65872;BME280;52653;50.080;21.992;2023-11-21T07:45:42;98347.09;;;7.61;100.00
65872;BME280;52653;50.080;21.992;2023-11-21T07:48:17;98353.29;;;7.69;100.00
65872;BME280;52653;50.080;21.992;2023-11-21T07:50:52;98354.64;;;7.73;100.00
65872;BME280;52653;50.080;21.992;2023-11-21T07:53:43;98355.82;;;7.79;100.00
65872;BME280;52653;50.080;21.992;2023-11-21T07:56:16;98357.69;;;7.83;100.00
65872;BME280;52653;50.080;21.992;2023-11-21T07:59:09;98356.94;;;7.88;100.00
65872;BME280;52653;50.080;21.992;2023-11-21T08:01:54;98361.05;;;7.94;100.00
65872;BME280;52653;50.080;21.992;2023-11-21T08:04:40;98359.60;;;7.99;100.00
65872;BME280;52653;50.080;21.992;2023-11-21T08:07:16;98358.38;;;8.01;100.00
65872;BME280;52653;50.080;21.992;2023-11-21T08:09:54;98360.82;;;8.01;100.00
65872;BME280;52653;50.080;21.992;2023-11-21T08:12:33;98368.15;;;8.02;100.00
65872;BME280;52653;50.080;21.992;2023-11-21T08:15:25;98368.82;;;8.04;100.00
65872;BME280;52653;50.080;21.992;2023-11-21T08:18:01;98366.85;;;8.07;100.00
65872;BME280;52653;50.080;21.992;2023-11-21T08:20:39;98375.52;;;8.12;100.00
65872;BME280;52653;50.080;21.992;2023-11-21T08:23:32;98374.26;;;8.17;100.00
65872;BME280;52653;50.080;21.992;2023-11-21T08:26:25;98374.05;;;8.19;100.00
65872;BME280;52653;50.080;21.992;2023-11-21T08:29:01;98372.81;;;8.20;100.00
65872;BME280;52653;50.080;21.992;2023-11-21T08:31:54;98370.91;;;8.19;100.00
65872;BME280;52653;50.080;21.992;2023-11-21T08:34:47;98372.31;;;8.18;100.00
65872;BME280;52653;50.080;21.992;2023-11-21T08:37:37;98373.52;;;8.20;100.00
65872;BME280;52653;50.080;21.992;2023-11-21T08:40:29;98370.37;;;8.20;100.00
65872;BME280;52653;50.080;21.992;2023-11-21T08:43:06;98373.32;;;8.21;100.00
65872;BME280;52653;50.080;21.992;2023-11-21T08:45:59;98372.77;;;8.24;100.00
65872;BME280;52653;50.080;21.992;2023-11-21T08:48:31;98375.55;;;8.26;100.00
65872;BME280;52653;50.080;21.992;2023-11-21T08:51:23;98380.39;;;8.30;100.00
65872;BME280;52653;50.080;21.992;2023-11-21T08:54:09;98379.34;;;8.31;100.00
65872;BME280;52653;50.080;21.992;2023-11-21T08:57:03;98377.57;;;8.32;100.00
65872;BME280;52653;50.080;21.992;2023-11-21T08:59:56;98380.35;;;8.33;100.00
65872;BME280;52653;50.080;21.992;2023-11-21T09:02:49;98382.77;;;8.39;100.00
65872;BME280;52653;50.080;21.992;2023-11-21T09:05:42;98384.80;;;8.44;100.00
65872;BME280;52653;50.080;21.992;2023-11-21T09:08:21;98380.39;;;8.46;100.00
65872;BME280;52653;50.080;21.992;2023-11-21T09:11:09;98387.01;;;8.48;100.00
65872;BME280;52653;50.080;21.992;2023-11-21T09:13:45;98386.12;;;8.49;100.00
65872;BME280;52653;50.080;21.992;2023-11-21T09:16:27;98388.74;;;8.48;100.00
65872;BME280;52653;50.080;21.992;2023-11-21T09:19:11;98389.27;;;8.48;100.00
65872;BME280;52653;50.080;21.992;2023-11-21T09:21:48;98391.20;;;8.48;100.00
65872;BME280;52653;50.080;21.992;2023-11-21T09:24:26;98390.36;;;8.45;100.00
65872;BME280;52653;50.080;21.992;2023-11-21T09:27:07;98395.64;;;8.43;100.00
65872;BME280;52653;50.080;21.992;2023-11-21T09:29:43;98394.12;;;8.40;100.00
65872;BME280;52653;50.080;21.992;2023-11-21T09:32:19;98391.16;;;8.36;100.00
65872;BME280;52653;50.080;21.992;2023-11-21T09:34:56;98395.22;;;8.32;100.00
65872;BME280;52653;50.080;21.992;2023-11-21T09:37:39;98395.98;;;8.27;100.00
65872;BME280;52653;50.080;21.992;2023-11-21T09:40:52;98393.54;;;8.26;100.00
65872;BME280;52653;50.080;21.992;2023-11-21T09:43:36;98393.36;;;8.25;100.00
65872;BME280;52653;50.080;21.992;2023-11-21T09:46:29;98393.19;;;8.24;100.00
65872;BME280;52653;50.080;21.992;2023-11-21T09:49:14;98394.06;;;8.24;100.00
65872;BME280;52653;50.080;21.992;2023-11-21T09:52:06;98394.97;;;8.22;100.00
65872;BME280;52653;50.080;21.992;2023-11-21T09:55:01;98396.52;;;8.24;100.00
65872;BME280;52653;50.080;21.992;2023-11-21T09:57:48;98400.70;;;8.28;100.00
65872;BME280;52653;50.080;21.992;2023-11-21T10:00:24;98398.60;;;8.26;100.00
65872;BME280;52653;50.080;21.992;2023-11-21T10:03:10;98402.64;;;8.23;100.00
65872;BME280;52653;50.080;21.992;2023-11-21T10:06:05;98407.59;;;8.19;100.00
65872;BME280;52653;50.080;21.992;2023-11-21T10:09:00;98410.08;;;8.16;100.00
65872;BME280;52653;50.080;21.992;2023-11-21T10:11:55;98412.58;;;8.10;100.00
65872;BME280;52653;50.080;21.992;2023-11-21T10:14:50;98416.34;;;8.01;100.00
65872;BME280;52653;50.080;21.992;2023-11-21T10:17:47;98420.39;;;7.97;100.00
65872;BME280;52653;50.080;21.992;2023-11-21T10:20:42;98425.27;;;7.97;100.00
65872;BME280;52653;50.080;21.992;2023-11-21T10:23:23;98431.55;;;7.97;100.00
65872;BME280;52653;50.080;21.992;2023-11-21T10:26:15;98434.38;;;7.95;100.00
65872;BME280;52653;50.080;21.992;2023-11-21T10:29:15;98433.78;;;7.85;99.16
65872;BME280;52653;50.080;21.992;2023-11-21T10:32:11;98432.48;;;7.75;99.31
65872;BME280;52653;50.080;21.992;2023-11-21T10:35:00;98435.65;;;7.70;99.58
65872;BME280;52653;50.080;21.992;2023-11-21T10:37:41;98430.64;;;7.66;99.69
65872;BME280;52653;50.080;21.992;2023-11-21T10:40:34;98432.39;;;7.65;99.95
65872;BME280;52653;50.080;21.992;2023-11-21T10:43:27;98435.72;;;7.63;99.68
65872;BME280;52653;50.080;21.992;2023-11-21T10:46:15;98441.00;;;7.58;99.54
65872;BME280;52653;50.080;21.992;2023-11-21T10:49:02;98445.09;;;7.49;99.02
65872;BME280;52653;50.080;21.992;2023-11-21T10:51:49;98444.82;;;7.39;98.85
65872;BME280;52653;50.080;21.992;2023-11-21T10:54:31;98442.22;;;7.35;99.22
65872;BME280;52653;50.080;21.992;2023-11-21T10:57:19;98446.74;;;7.35;99.61
65872;BME280;52653;50.080;21.992;2023-11-21T11:00:09;98445.52;;;7.36;99.50
65872;BME280;52653;50.080;21.992;2023-11-21T11:02:48;98449.20;;;7.35;99.34
65872;BME280;52653;50.080;21.992;2023-11-21T11:05:34;98449.55;;;7.33;99.31
65872;BME280;52653;50.080;21.992;2023-11-21T11:08:27;98453.57;;;7.33;99.38
65872;BME280;52653;50.080;21.992;2023-11-21T11:11:21;98455.13;;;7.36;99.57
65872;BME280;52653;50.080;21.992;2023-11-21T11:14:04;98455.64;;;7.36;99.51
65872;BME280;52653;50.080;21.992;2023-11-21T11:16:58;98454.08;;;7.37;99.43
65872;BME280;52653;50.080;21.992;2023-11-21T11:19:53;98458.27;;;7.34;99.28
65872;BME280;52653;50.080;21.992;2023-11-21T11:23:07;98456.59;;;7.26;99.03
65872;BME280;52653;50.080;21.992;2023-11-21T11:26:12;98461.69;;;7.20;99.39
65872;BME280;52653;50.080;21.992;2023-11-21T11:29:17;98460.46;;;7.19;99.83
65872;BME280;52653;50.080;21.992;2023-11-21T11:35:10;98466.93;;;7.18;99.84
65872;BME280;52653;50.080;21.992;2023-11-21T11:37:53;98467.64;;;7.17;99.86
65872;BME280;52653;50.080;21.992;2023-11-21T11:40:27;98470.77;;;7.17;99.93
65872;BME280;52653;50.080;21.992;2023-11-21T11:43:12;98469.23;;;7.14;99.67
65872;BME280;52653;50.080;21.992;2023-11-21T11:45:47;98474.12;;;7.12;99.70
65872;BME280;52653;50.080;21.992;2023-11-21T11:48:36;98475.88;;;7.12;99.89
65872;BME280;52653;50.080;21.992;2023-11-21T11:51:14;98474.99;;;7.12;99.90
65872;BME280;52653;50.080;21.992;2023-11-21T11:53:57;98472.91;;;7.08;99.82
65872;BME280;52653;50.080;21.992;2023-11-21T11:56:33;98473.45;;;7.06;99.91
65872;BME280;52653;50.080;21.992;2023-11-21T11:59:19;98473.63;;;7.05;99.99
65872;BME280;52653;50.080;21.992;2023-11-21T12:02:04;98475.38;;;7.06;100.00
65872;BME280;52653;50.080;21.992;2023-11-21T12:04:42;98471.00;;;7.07;100.00
65872;BME280;52653;50.080;21.992;2023-11-21T12:07:18;98475.52;;;7.07;99.82
65872;BME280;52653;50.080;21.992;2023-11-21T12:10:15;98472.74;;;7.07;99.79
65872;BME280;52653;50.080;21.992;2023-11-21T12:13:10;98481.67;;;7.04;99.61
65872;BME280;52653;50.080;21.992;2023-11-21T12:15:54;98482.55;;;7.03;99.61
65872;BME280;52653;50.080;21.992;2023-11-21T12:18:29;98486.02;;;7.05;99.74
65872;BME280;52653;50.080;21.992;2023-11-21T12:21:15;98489.48;;;7.06;99.80
65872;BME280;52653;50.080;21.992;2023-11-21T12:23:58;98489.14;;;7.05;99.53
65872;BME280;52653;50.080;21.992;2023-11-21T12:26:51;98488.80;;;7.05;99.46
65872;BME280;52653;50.080;21.992;2023-11-21T12:29:44;98493.00;;;7.03;99.47
65872;BME280;52653;50.080;21.992;2023-11-21T12:32:36;98493.02;;;7.00;99.45
65872;BME280;52653;50.080;21.992;2023-11-21T12:35:29;98495.81;;;6.98;99.65
65872;BME280;52653;50.080;21.992;2023-11-21T12:38:05;98498.26;;;6.96;99.55
65872;BME280;52653;50.080;21.992;2023-11-21T12:40:50;98502.80;;;6.93;99.69
65872;BME280;52653;50.080;21.992;2023-11-21T12:43:45;98503.52;;;6.90;99.90
65872;BME280;52653;50.080;21.992;2023-11-21T12:46:27;98509.46;;;6.84;99.94
65872;BME280;52653;50.080;21.992;2023-11-21T12:49:25;98513.86;;;6.78;100.00
65872;BME280;52653;50.080;21.992;2023-11-21T12:52:09;98523.28;;;6.72;100.00
65872;BME280;52653;50.080;21.992;2023-11-21T12:54:53;98522.95;;;6.67;100.00
65872;BME280;52653;50.080;21.992;2023-11-21T12:57:49;98524.36;;;6.62;100.00
65872;BME280;52653;50.080;21.992;2023-11-21T13:00:37;98533.97;;;6.54;100.00
65872;BME280;52653;50.080;21.992;2023-11-21T13:03:31;98535.73;;;6.47;100.00
65872;BME280;52653;50.080;21.992;2023-11-21T13:06:25;98540.44;;;6.40;100.00
65872;BME280;52653;50.080;21.992;2023-11-21T13:09:19;98542.72;;;6.32;100.00
65872;BME280;52653;50.080;21.992;2023-11-21T13:12:08;98544.30;;;6.26;100.00
65872;BME280;52653;50.080;21.992;2023-11-21T13:14:44;98546.22;;;6.23;100.00
65872;BME280;52653;50.080;21.992;2023-11-21T13:17:31;98550.58;;;6.18;100.00
65872;BME280;52653;50.080;21.992;2023-11-21T13:20:24;98549.54;;;6.14;100.00
65872;BME280;52653;50.080;21.992;2023-11-21T13:23:17;98556.49;;;6.09;100.00
65872;BME280;52653;50.080;21.992;2023-11-21T13:26:02;98562.41;;;6.03;100.00
65872;BME280;52653;50.080;21.992;2023-11-21T13:29:00;98566.77;;;5.95;100.00
65872;BME280;52653;50.080;21.992;2023-11-21T13:31:48;98571.96;;;5.89;100.00
65872;BME280;52653;50.080;21.992;2023-11-21T13:34:36;98576.30;;;5.81;100.00
65872;BME280;52653;50.080;21.992;2023-11-21T13:37:29;98581.68;;;5.74;100.00
65872;BME280;52653;50.080;21.992;2023-11-21T13:40:16;98583.05;;;5.70;100.00
65872;BME280;52653;50.080;21.992;2023-11-21T13:42:53;98589.49;;;5.67;100.00
65872;BME280;52653;50.080;21.992;2023-11-21T13:45:50;98590.36;;;5.66;100.00
65872;BME280;52653;50.080;21.992;2023-11-21T13:49:06;98598.38;;;5.66;100.00
65872;BME280;52653;50.080;21.992;2023-11-21T13:52:01;98601.67;;;5.67;100.00
65872;BME280;52653;50.080;21.992;2023-11-21T13:54:54;98605.33;;;5.65;100.00
65872;BME280;52653;50.080;21.992;2023-11-21T13:57:30;98604.98;;;5.61;100.00
65872;BME280;52653;50.080;21.992;2023-11-21T14:00:23;98606.17;;;5.57;100.00
65872;BME280;52653;50.080;21.992;2023-11-21T14:03:36;98606.00;;;5.53;100.00
65872;BME280;52653;50.080;21.992;2023-11-21T14:06:42;98615.21;;;5.49;100.00
65872;BME280;52653;50.080;21.992;2023-11-21T14:09:39;98620.57;;;5.41;100.00
65872;BME280;52653;50.080;21.992;2023-11-21T14:12:35;98625.95;;;5.35;100.00
65872;BME280;52653;50.080;21.992;2023-11-21T14:15:25;98622.27;;;5.31;100.00
65872;BME280;52653;50.080;21.992;2023-11-21T14:18:19;98623.30;;;5.27;100.00
65872;BME280;52653;50.080;21.992;2023-11-21T14:21:19;98627.12;;;5.25;100.00
65872;BME280;52653;50.080;21.992;2023-11-21T14:24:14;98628.68;;;5.22;100.00
65872;BME280;52653;50.080;21.992;2023-11-21T14:27:09;98633.34;;;5.17;100.00
65872;BME280;52653;50.080;21.992;2023-11-21T14:30:02;98636.98;;;5.16;100.00
65872;BME280;52653;50.080;21.992;2023-11-21T14:32:52;98633.50;;;5.14;100.00
65872;BME280;52653;50.080;21.992;2023-11-21T14:35:47;98633.50;;;5.13;100.00
65872;BME280;52653;50.080;21.992;2023-11-21T14:38:40;98634.36;;;5.13;100.00
65872;BME280;52653;50.080;21.992;2023-11-21T14:41:34;98637.50;;;5.15;100.00
65872;BME280;52653;50.080;21.992;2023-11-21T14:44:22;98641.15;;;5.15;100.00
65872;BME280;52653;50.080;21.992;2023-11-21T14:47:17;98644.46;;;5.15;100.00
65872;BME280;52653;50.080;21.992;2023-11-21T14:50:10;98645.33;;;5.15;100.00
65872;BME280;52653;50.080;21.992;2023-11-21T14:53:19;98647.23;;;5.11;100.00
65872;BME280;52653;50.080;21.992;2023-11-21T14:56:34;98652.44;;;5.10;100.00
65872;BME280;52653;50.080;21.992;2023-11-21T14:59:34;98653.45;;;5.08;100.00
65872;BME280;52653;50.080;21.992;2023-11-21T15:02:27;98657.09;;;5.07;100.00